sensor_id;sensor_type;location;lat;lon;timestamp;temperature;humidity
19206;DHT22;59358;52.134;5.596;2023-07-02T00:01:48;16.70;99.90
19206;DHT22;59358;52.134;5.596;2023-07-02T00:04:16;16.30;99.90
19206;DHT22;59358;52.134;5.596;2023-07-02T00:06:46;16.00;99.90
19206;DHT22;59358;52.134;5.596;2023-07-02T00:09:14;15.90;99.90
19206;DHT22;59358;52.134;5.596;2023-07-02T00:11:42;15.80;99.90
19206;DHT22;59358;52.134;5.596;2023-07-02T00:14:10;15.80;99.90
19206;DHT22;59358;52.134;5.596;2023-07-02T00:16:38;15.80;99.90
19206;DHT22;59358;52.134;5.596;2023-07-02T00:19:05;15.80;99.90
19206;DHT22;59358;52.134;5.596;2023-07-02T00:21:32;15.90;99.90
19206;DHT22;59358;52.134;5.596;2023-07-02T00:24:01;15.80;99.90
19206;DHT22;59358;52.134;5.596;2023-07-02T00:26:28;15.80;99.90
19206;DHT22;59358;52.134;5.596;2023-07-02T00:28:56;15.80;99.90
19206;DHT22;59358;52.134;5.596;2023-07-02T00:31:23;15.90;99.90
19206;DHT22;59358;52.134;5.596;2023-07-02T00:33:50;15.90;99.90
19206;DHT22;59358;52.134;5.596;2023-07-02T00:36:17;15.90;99.90
19206;DHT22;59358;52.134;5.596;2023-07-02T00:38:45;15.90;99.90
19206;DHT22;59358;52.134;5.596;2023-07-02T00:41:14;15.90;99.90
19206;DHT22;59358;52.134;5.596;2023-07-02T00:43:41;16.00;99.90
19206;DHT22;59358;52.134;5.596;2023-07-02T00:46:12;16.00;99.90
19206;DHT22;59358;52.134;5.596;2023-07-02T00:48:43;15.90;99.90
19206;DHT22;59358;52.134;5.596;2023-07-02T00:51:12;15.90;99.90
19206;DHT22;59358;52.134;5.596;2023-07-02T00:53:40;15.90;99.90
19206;DHT22;59358;52.134;5.596;2023-07-02T00:56:07;15.90;99.90
19206;DHT22;59358;52.134;5.596;2023-07-02T00:58:38;15.90;99.90
19206;DHT22;59358;52.134;5.596;2023-07-02T01:01:05;15.80;99.90
19206;DHT22;59358;52.134;5.596;2023-07-02T01:03:33;15.80;99.90
19206;DHT22;59358;52.134;5.596;2023-07-02T01:06:03;15.80;99.90
19206;DHT22;59358;52.134;5.596;2023-07-02T01:08:30;15.80;99.90
19206;DHT22;59358;52.134;5.596;2023-07-02T01:10:57;15.80;99.90
19206;DHT22;59358;52.134;5.596;2023-07-02T01:13:26;15.70;99.90
19206;DHT22;59358;52.134;5.596;2023-07-02T01:15:54;15.70;99.90
19206;DHT22;59358;52.134;5.596;2023-07-02T01:18:22;15.70;99.90
19206;DHT22;59358;52.134;5.596;2023-07-02T01:20:51;15.60;99.90
19206;DHT22;59358;52.134;5.596;2023-07-02T01:23:20;15.60;99.90
19206;DHT22;59358;52.134;5.596;2023-07-02T01:25:47;15.60;99.90
19206;DHT22;59358;52.134;5.596;2023-07-02T01:28:14;15.60;99.90
19206;DHT22;59358;52.134;5.596;2023-07-02T01:30:41;15.60;99.90
19206;DHT22;59358;52.134;5.596;2023-07-02T01:33:08;15.50;99.90
19206;DHT22;59358;52.134;5.596;2023-07-02T01:35:35;15.50;99.90
19206;DHT22;59358;52.134;5.596;2023-07-02T01:38:03;15.40;99.90
19206;DHT22;59358;52.134;5.596;2023-07-02T01:40:31;15.30;99.90
19206;DHT22;59358;52.134;5.596;2023-07-02T01:42:57;15.20;99.90
19206;DHT22;59358;52.134;5.596;2023-07-02T01:45:24;15.10;99.90
19206;DHT22;59358;52.134;5.596;2023-07-02T01:47:51;15.00;99.90
19206;DHT22;59358;52.134;5.596;2023-07-02T01:50:18;14.90;99.90
19206;DHT22;59358;52.134;5.596;2023-07-02T01:52:45;14.80;99.90
19206;DHT22;59358;52.134;5.596;2023-07-02T01:55:13;14.80;99.90
19206;DHT22;59358;52.134;5.596;2023-07-02T01:57:40;14.70;99.90
19206;DHT22;59358;52.134;5.596;2023-07-02T02:00:07;14.70;99.90
19206;DHT22;59358;52.134;5.596;2023-07-02T02:02:35;14.60;99.90
19206;DHT22;59358;52.134;5.596;2023-07-02T02:05:02;14.60;99.90
19206;DHT22;59358;52.134;5.596;2023-07-02T02:07:29;14.60;99.90
19206;DHT22;59358;52.134;5.596;2023-07-02T02:09:56;14.50;99.90
19206;DHT22;59358;52.134;5.596;2023-07-02T02:12:24;14.50;99.90
19206;DHT22;59358;52.134;5.596;2023-07-02T02:14:51;14.40;99.90
19206;DHT22;59358;52.134;5.596;2023-07-02T02:17:17;14.40;99.90
19206;DHT22;59358;52.134;5.596;2023-07-02T02:19:44;14.40;99.90
19206;DHT22;59358;52.134;5.596;2023-07-02T02:22:11;14.30;99.90
19206;DHT22;59358;52.134;5.596;2023-07-02T02:24:38;14.30;99.90
19206;DHT22;59358;52.134;5.596;2023-07-02T02:27:05;14.20;99.90
19206;DHT22;59358;52.134;5.596;2023-07-02T02:29:33;14.20;99.90
19206;DHT22;59358;52.134;5.596;2023-07-02T02:32:00;14.20;99.90
19206;DHT22;59358;52.134;5.596;2023-07-02T02:34:26;14.10;99.90
19206;DHT22;59358;52.134;5.596;2023-07-02T02:36:54;14.10;99.90
19206;DHT22;59358;52.134;5.596;2023-07-02T02:39:22;14.00;99.90
19206;DHT22;59358;52.134;5.596;2023-07-02T02:41:49;14.00;99.90
19206;DHT22;59358;52.134;5.596;2023-07-02T02:44:16;13.90;99.90
19206;DHT22;59358;52.134;5.596;2023-07-02T02:46:44;13.90;99.90
19206;DHT22;59358;52.134;5.596;2023-07-02T02:49:11;13.80;99.90
19206;DHT22;59358;52.134;5.596;2023-07-02T02:51:38;13.80;99.90
19206;DHT22;59358;52.134;5.596;2023-07-02T02:54:06;13.80;99.90
19206;DHT22;59358;52.134;5.596;2023-07-02T02:56:33;13.70;99.90
19206;DHT22;59358;52.134;5.596;2023-07-02T02:58:59;13.60;99.90
19206;DHT22;59358;52.134;5.596;2023-07-02T03:01:26;13.60;99.90
19206;DHT22;59358;52.134;5.596;2023-07-02T03:03:58;13.60;99.90
19206;DHT22;59358;52.134;5.596;2023-07-02T03:06:25;13.60;99.90
19206;DHT22;59358;52.134;5.596;2023-07-02T03:08:52;13.60;99.90
19206;DHT22;59358;52.134;5.596;2023-07-02T03:11:19;13.60;99.90
19206;DHT22;59358;52.134;5.596;2023-07-02T03:13:45;13.60;99.90
19206;DHT22;59358;52.134;5.596;2023-07-02T03:16:12;13.60;99.90
19206;DHT22;59358;52.134;5.596;2023-07-02T03:18:39;13.60;99.90
19206;DHT22;59358;52.134;5.596;2023-07-02T03:21:07;13.70;99.90
19206;DHT22;59358;52.134;5.596;2023-07-02T03:23:35;13.70;99.90
19206;DHT22;59358;52.134;5.596;2023-07-02T03:26:02;13.70;99.90
19206;DHT22;59358;52.134;5.596;2023-07-02T03:28:28;13.70;99.90
19206;DHT22;59358;52.134;5.596;2023-07-02T03:30:56;13.70;99.90
19206;DHT22;59358;52.134;5.596;2023-07-02T03:33:22;13.60;99.90
19206;DHT22;59358;52.134;5.596;2023-07-02T03:35:49;13.60;99.90
19206;DHT22;59358;52.134;5.596;2023-07-02T03:38:17;13.60;99.90
19206;DHT22;59358;52.134;5.596;2023-07-02T03:40:45;13.60;99.90
19206;DHT22;59358;52.134;5.596;2023-07-02T03:43:11;13.60;99.90
19206;DHT22;59358;52.134;5.596;2023-07-02T03:45:38;13.60;99.90
19206;DHT22;59358;52.134;5.596;2023-07-02T03:48:05;13.60;99.90
19206;DHT22;59358;52.134;5.596;2023-07-02T03:50:32;13.60;99.90
19206;DHT22;59358;52.134;5.596;2023-07-02T03:52:59;13.60;99.90
19206;DHT22;59358;52.134;5.596;2023-07-02T03:55:27;13.50;99.90
19206;DHT22;59358;52.134;5.596;2023-07-02T03:57:54;13.50;99.90
19206;DHT22;59358;52.134;5.596;2023-07-02T04:00:21;13.60;99.90
19206;DHT22;59358;52.134;5.596;2023-07-02T04:02:48;13.60;99.90
19206;DHT22;59358;52.134;5.596;2023-07-02T04:05:14;13.70;99.90
19206;DHT22;59358;52.134;5.596;2023-07-02T04:07:42;13.70;99.90
19206;DHT22;59358;52.134;5.596;2023-07-02T04:10:09;13.80;99.90
19206;DHT22;59358;52.134;5.596;2023-07-02T04:12:37;13.80;99.90
19206;DHT22;59358;52.134;5.596;2023-07-02T04:15:05;13.80;99.90
19206;DHT22;59358;52.134;5.596;2023-07-02T04:17:32;13.80;99.90
19206;DHT22;59358;52.134;5.596;2023-07-02T04:20:00;13.80;99.90
19206;DHT22;59358;52.134;5.596;2023-07-02T04:22:28;13.90;99.90
19206;DHT22;59358;52.134;5.596;2023-07-02T04:24:55;13.90;99.90
19206;DHT22;59358;52.134;5.596;2023-07-02T04:27:22;13.90;99.90
19206;DHT22;59358;52.134;5.596;2023-07-02T04:29:50;13.90;99.90
19206;DHT22;59358;52.134;5.596;2023-07-02T04:32:17;14.00;99.90
19206;DHT22;59358;52.134;5.596;2023-07-02T04:34:44;14.00;99.90
19206;DHT22;59358;52.134;5.596;2023-07-02T04:37:10;14.00;99.90
19206;DHT22;59358;52.134;5.596;2023-07-02T04:39:37;14.00;99.90
19206;DHT22;59358;52.134;5.596;2023-07-02T04:42:05;14.00;99.90
19206;DHT22;59358;52.134;5.596;2023-07-02T04:44:32;14.00;99.90
19206;DHT22;59358;52.134;5.596;2023-07-02T04:47:01;14.00;99.90
19206;DHT22;59358;52.134;5.596;2023-07-02T04:49:28;14.00;99.90
19206;DHT22;59358;52.134;5.596;2023-07-02T04:51:55;14.00;99.90
19206;DHT22;59358;52.134;5.596;2023-07-02T04:54:22;14.10;99.90
19206;DHT22;59358;52.134;5.596;2023-07-02T04:56:49;14.10;99.90
19206;DHT22;59358;52.134;5.596;2023-07-02T04:59:16;14.10;99.90
19206;DHT22;59358;52.134;5.596;2023-07-02T05:01:43;14.20;99.90
19206;DHT22;59358;52.134;5.596;2023-07-02T05:04:12;14.30;99.90
19206;DHT22;59358;52.134;5.596;2023-07-02T05:06:39;14.40;99.90
19206;DHT22;59358;52.134;5.596;2023-07-02T05:09:06;14.40;99.90
19206;DHT22;59358;52.134;5.596;2023-07-02T05:11:32;14.40;99.90
19206;DHT22;59358;52.134;5.596;2023-07-02T05:13:59;14.50;99.90
19206;DHT22;59358;52.134;5.596;2023-07-02T05:16:26;14.60;99.90
19206;DHT22;59358;52.134;5.596;2023-07-02T05:18:53;14.70;99.90
19206;DHT22;59358;52.134;5.596;2023-07-02T05:21:22;14.70;99.90
19206;DHT22;59358;52.134;5.596;2023-07-02T05:23:49;14.80;99.90
19206;DHT22;59358;52.134;5.596;2023-07-02T05:26:16;14.80;99.90
19206;DHT22;59358;52.134;5.596;2023-07-02T05:28:42;14.90;99.90
19206;DHT22;59358;52.134;5.596;2023-07-02T05:31:10;14.90;99.90
19206;DHT22;59358;52.134;5.596;2023-07-02T05:33:38;15.00;99.90
19206;DHT22;59358;52.134;5.596;2023-07-02T05:36:05;15.10;99.90
19206;DHT22;59358;52.134;5.596;2023-07-02T05:38:33;15.10;99.90
19206;DHT22;59358;52.134;5.596;2023-07-02T05:41:01;15.10;99.90
19206;DHT22;59358;52.134;5.596;2023-07-02T05:43:28;15.20;99.90
19206;DHT22;59358;52.134;5.596;2023-07-02T05:45:58;15.20;99.90
19206;DHT22;59358;52.134;5.596;2023-07-02T05:48:26;15.30;99.90
19206;DHT22;59358;52.134;5.596;2023-07-02T05:50:54;15.30;99.90
19206;DHT22;59358;52.134;5.596;2023-07-02T05:53:21;15.30;99.90
19206;DHT22;59358;52.134;5.596;2023-07-02T05:55:49;15.30;99.90
19206;DHT22;59358;52.134;5.596;2023-07-02T05:58:16;15.40;99.90
19206;DHT22;59358;52.134;5.596;2023-07-02T06:00:43;15.50;99.90
19206;DHT22;59358;52.134;5.596;2023-07-02T06:03:14;15.50;99.90
19206;DHT22;59358;52.134;5.596;2023-07-02T06:05:46;15.60;99.90
19206;DHT22;59358;52.134;5.596;2023-07-02T06:08:14;15.60;99.90
19206;DHT22;59358;52.134;5.596;2023-07-02T06:10:41;15.60;99.90
19206;DHT22;59358;52.134;5.596;2023-07-02T06:13:10;15.60;99.90
19206;DHT22;59358;52.134;5.596;2023-07-02T06:15:37;15.70;99.90
19206;DHT22;59358;52.134;5.596;2023-07-02T06:18:04;15.70;99.90
19206;DHT22;59358;52.134;5.596;2023-07-02T06:20:31;15.80;99.90
19206;DHT22;59358;52.134;5.596;2023-07-02T06:22:58;16.00;99.90
19206;DHT22;59358;52.134;5.596;2023-07-02T06:25:25;16.10;99.90
19206;DHT22;59358;52.134;5.596;2023-07-02T06:27:52;16.10;99.90
19206;DHT22;59358;52.134;5.596;2023-07-02T06:30:22;16.00;99.90
19206;DHT22;59358;52.134;5.596;2023-07-02T06:32:49;16.20;99.90
19206;DHT22;59358;52.134;5.596;2023-07-02T06:35:16;16.30;99.90
19206;DHT22;59358;52.134;5.596;2023-07-02T06:37:43;16.40;99.90
19206;DHT22;59358;52.134;5.596;2023-07-02T06:40:11;16.60;99.90
19206;DHT22;59358;52.134;5.596;2023-07-02T06:42:37;16.80;99.90
19206;DHT22;59358;52.134;5.596;2023-07-02T06:45:05;16.90;99.90
19206;DHT22;59358;52.134;5.596;2023-07-02T06:47:36;17.20;99.90
19206;DHT22;59358;52.134;5.596;2023-07-02T06:50:05;17.50;99.90
19206;DHT22;59358;52.134;5.596;2023-07-02T06:52:31;17.40;99.90
19206;DHT22;59358;52.134;5.596;2023-07-02T06:54:58;17.40;99.90
19206;DHT22;59358;52.134;5.596;2023-07-02T06:57:25;17.30;99.90
19206;DHT22;59358;52.134;5.596;2023-07-02T06:59:52;17.20;99.90
19206;DHT22;59358;52.134;5.596;2023-07-02T07:02:19;17.10;99.90
19206;DHT22;59358;52.134;5.596;2023-07-02T07:04:47;17.20;99.90
19206;DHT22;59358;52.134;5.596;2023-07-02T07:07:14;17.30;99.90
19206;DHT22;59358;52.134;5.596;2023-07-02T07:09:40;17.20;99.90
19206;DHT22;59358;52.134;5.596;2023-07-02T07:12:08;17.20;99.90
19206;DHT22;59358;52.134;5.596;2023-07-02T07:14:37;17.20;99.90
19206;DHT22;59358;52.134;5.596;2023-07-02T07:17:04;17.10;99.90
19206;DHT22;59358;52.134;5.596;2023-07-02T07:19:32;17.10;99.90
19206;DHT22;59358;52.134;5.596;2023-07-02T07:22:00;17.40;99.90
19206;DHT22;59358;52.134;5.596;2023-07-02T07:24:27;17.60;99.90
19206;DHT22;59358;52.134;5.596;2023-07-02T07:26:54;17.60;99.90
19206;DHT22;59358;52.134;5.596;2023-07-02T07:29:22;17.90;99.90
19206;DHT22;59358;52.134;5.596;2023-07-02T07:31:50;18.20;99.90
19206;DHT22;59358;52.134;5.596;2023-07-02T07:34:17;18.10;99.90
19206;DHT22;59358;52.134;5.596;2023-07-02T07:36:44;18.20;99.90
19206;DHT22;59358;52.134;5.596;2023-07-02T07:39:12;18.30;99.90
19206;DHT22;59358;52.134;5.596;2023-07-02T07:41:39;18.50;99.90
19206;DHT22;59358;52.134;5.596;2023-07-02T07:44:06;18.80;99.90
19206;DHT22;59358;52.134;5.596;2023-07-02T07:46:32;18.90;99.90
19206;DHT22;59358;52.134;5.596;2023-07-02T07:48:59;18.90;99.90
19206;DHT22;59358;52.134;5.596;2023-07-02T07:51:26;18.80;99.90
19206;DHT22;59358;52.134;5.596;2023-07-02T07:53:53;18.90;99.90
19206;DHT22;59358;52.134;5.596;2023-07-02T07:56:21;18.80;99.90
19206;DHT22;59358;52.134;5.596;2023-07-02T07:58:48;18.70;99.90
19206;DHT22;59358;52.134;5.596;2023-07-02T08:01:15;18.60;99.90
19206;DHT22;59358;52.134;5.596;2023-07-02T08:03:42;18.50;99.90
19206;DHT22;59358;52.134;5.596;2023-07-02T08:06:08;18.70;99.90
19206;DHT22;59358;52.134;5.596;2023-07-02T08:08:35;19.20;99.90
19206;DHT22;59358;52.134;5.596;2023-07-02T08:11:02;19.10;99.90
19206;DHT22;59358;52.134;5.596;2023-07-02T08:13:30;18.80;99.90
19206;DHT22;59358;52.134;5.596;2023-07-02T08:15:57;18.60;99.90
19206;DHT22;59358;52.134;5.596;2023-07-02T08:18:24;18.40;99.90
19206;DHT22;59358;52.134;5.596;2023-07-02T08:20:51;18.40;99.90
19206;DHT22;59358;52.134;5.596;2023-07-02T08:23:17;18.40;99.90
19206;DHT22;59358;52.134;5.596;2023-07-02T08:25:44;18.70;99.90
19206;DHT22;59358;52.134;5.596;2023-07-02T08:28:11;18.90;99.90
19206;DHT22;59358;52.134;5.596;2023-07-02T08:30:39;19.10;99.90
19206;DHT22;59358;52.134;5.596;2023-07-02T08:33:06;19.10;99.90
19206;DHT22;59358;52.134;5.596;2023-07-02T08:35:33;19.10;99.90
19206;DHT22;59358;52.134;5.596;2023-07-02T08:37:59;19.30;99.90
19206;DHT22;59358;52.134;5.596;2023-07-02T08:40:26;19.20;99.90
19206;DHT22;59358;52.134;5.596;2023-07-02T08:42:54;18.90;99.90
19206;DHT22;59358;52.134;5.596;2023-07-02T08:45:23;18.90;99.90
19206;DHT22;59358;52.134;5.596;2023-07-02T08:47:52;19.00;99.90
19206;DHT22;59358;52.134;5.596;2023-07-02T08:50:22;19.10;99.90
19206;DHT22;59358;52.134;5.596;2023-07-02T08:52:49;19.50;99.90
19206;DHT22;59358;52.134;5.596;2023-07-02T08:55:16;19.50;99.90
19206;DHT22;59358;52.134;5.596;2023-07-02T08:57:49;19.30;99.90
19206;DHT22;59358;52.134;5.596;2023-07-02T09:00:17;18.90;99.90
19206;DHT22;59358;52.134;5.596;2023-07-02T09:02:45;18.60;99.90
19206;DHT22;59358;52.134;5.596;2023-07-02T09:05:14;18.50;99.90
19206;DHT22;59358;52.134;5.596;2023-07-02T09:07:45;18.80;99.90
19206;DHT22;59358;52.134;5.596;2023-07-02T09:10:12;19.10;99.90
19206;DHT22;59358;52.134;5.596;2023-07-02T09:12:39;19.60;99.90
19206;DHT22;59358;52.134;5.596;2023-07-02T09:15:06;19.70;99.20
19206;DHT22;59358;52.134;5.596;2023-07-02T09:17:34;19.60;98.20
19206;DHT22;59358;52.134;5.596;2023-07-02T09:20:04;19.40;99.10
19206;DHT22;59358;52.134;5.596;2023-07-02T09:22:35;19.50;99.30
19206;DHT22;59358;52.134;5.596;2023-07-02T09:25:02;19.20;99.90
19206;DHT22;59358;52.134;5.596;2023-07-02T09:27:36;19.20;99.90
19206;DHT22;59358;52.134;5.596;2023-07-02T09:30:10;18.90;99.90
19206;DHT22;59358;52.134;5.596;2023-07-02T09:32:39;19.10;99.90
19206;DHT22;59358;52.134;5.596;2023-07-02T09:35:06;19.30;99.90
19206;DHT22;59358;52.134;5.596;2023-07-02T09:37:34;19.40;99.90
19206;DHT22;59358;52.134;5.596;2023-07-02T09:40:02;19.40;99.90
19206;DHT22;59358;52.134;5.596;2023-07-02T09:42:31;19.70;98.90
19206;DHT22;59358;52.134;5.596;2023-07-02T09:44:58;19.80;97.50
19206;DHT22;59358;52.134;5.596;2023-07-02T09:47:26;20.10;97.50
19206;DHT22;59358;52.134;5.596;2023-07-02T09:49:55;20.30;97.00
19206;DHT22;59358;52.134;5.596;2023-07-02T09:52:26;20.40;97.30
19206;DHT22;59358;52.134;5.596;2023-07-02T09:54:54;20.20;96.60
19206;DHT22;59358;52.134;5.596;2023-07-02T09:57:21;20.10;96.60
19206;DHT22;59358;52.134;5.596;2023-07-02T09:59:48;20.50;95.80
19206;DHT22;59358;52.134;5.596;2023-07-02T10:02:15;20.30;95.40
19206;DHT22;59358;52.134;5.596;2023-07-02T10:04:44;20.50;96.80
19206;DHT22;59358;52.134;5.596;2023-07-02T10:07:12;20.50;94.10
19206;DHT22;59358;52.134;5.596;2023-07-02T10:09:41;20.60;95.30
19206;DHT22;59358;52.134;5.596;2023-07-02T10:12:20;20.60;95.50
19206;DHT22;59358;52.134;5.596;2023-07-02T10:14:48;20.40;93.10
19206;DHT22;59358;52.134;5.596;2023-07-02T10:17:29;20.50;91.40
19206;DHT22;59358;52.134;5.596;2023-07-02T10:19:58;20.60;91.80
19206;DHT22;59358;52.134;5.596;2023-07-02T10:22:26;20.60;92.70
19206;DHT22;59358;52.134;5.596;2023-07-02T10:24:57;20.60;92.80
19206;DHT22;59358;52.134;5.596;2023-07-02T10:27:37;20.60;92.90
19206;DHT22;59358;52.134;5.596;2023-07-02T10:30:05;21.00;93.80
19206;DHT22;59358;52.134;5.596;2023-07-02T10:32:32;21.20;91.90
19206;DHT22;59358;52.134;5.596;2023-07-02T10:35:00;21.00;92.40
19206;DHT22;59358;52.134;5.596;2023-07-02T10:37:35;21.20;91.20
19206;DHT22;59358;52.134;5.596;2023-07-02T10:40:03;21.40;92.40
19206;DHT22;59358;52.134;5.596;2023-07-02T10:42:31;21.70;91.90
19206;DHT22;59358;52.134;5.596;2023-07-02T10:45:00;21.80;92.10
19206;DHT22;59358;52.134;5.596;2023-07-02T10:47:28;21.90;90.80
19206;DHT22;59358;52.134;5.596;2023-07-02T10:49:56;21.80;91.50
19206;DHT22;59358;52.134;5.596;2023-07-02T10:52:23;21.80;91.80
19206;DHT22;59358;52.134;5.596;2023-07-02T10:54:50;22.10;92.00
19206;DHT22;59358;52.134;5.596;2023-07-02T10:57:18;22.70;90.40
19206;DHT22;59358;52.134;5.596;2023-07-02T10:59:46;22.60;90.40
19206;DHT22;59358;52.134;5.596;2023-07-02T11:02:15;22.40;91.20
19206;DHT22;59358;52.134;5.596;2023-07-02T11:04:42;22.50;90.20
19206;DHT22;59358;52.134;5.596;2023-07-02T11:07:10;22.20;91.60
19206;DHT22;59358;52.134;5.596;2023-07-02T11:09:37;22.00;92.50
19206;DHT22;59358;52.134;5.596;2023-07-02T11:12:05;22.00;93.50
19206;DHT22;59358;52.134;5.596;2023-07-02T11:14:33;22.50;93.90
19206;DHT22;59358;52.134;5.596;2023-07-02T11:17:03;22.60;92.60
19206;DHT22;59358;52.134;5.596;2023-07-02T11:19:33;22.50;91.90
19206;DHT22;59358;52.134;5.596;2023-07-02T11:22:00;22.20;91.80
19206;DHT22;59358;52.134;5.596;2023-07-02T11:24:32;21.90;92.60
19206;DHT22;59358;52.134;5.596;2023-07-02T11:26:59;21.90;91.80
19206;DHT22;59358;52.134;5.596;2023-07-02T11:29:28;21.70;91.90
19206;DHT22;59358;52.134;5.596;2023-07-02T11:32:04;21.70;92.30
19206;DHT22;59358;52.134;5.596;2023-07-02T11:34:32;22.20;90.90
19206;DHT22;59358;52.134;5.596;2023-07-02T11:36:59;22.30;91.90
19206;DHT22;59358;52.134;5.596;2023-07-02T11:39:25;21.80;92.50
19206;DHT22;59358;52.134;5.596;2023-07-02T11:41:52;21.70;91.80
19206;DHT22;59358;52.134;5.596;2023-07-02T11:44:20;21.30;92.30
19206;DHT22;59358;52.134;5.596;2023-07-02T11:46:47;21.20;92.40
19206;DHT22;59358;52.134;5.596;2023-07-02T11:49:15;21.20;92.30
19206;DHT22;59358;52.134;5.596;2023-07-02T11:51:44;21.10;93.30
19206;DHT22;59358;52.134;5.596;2023-07-02T11:54:14;21.20;92.50
19206;DHT22;59358;52.134;5.596;2023-07-02T11:56:41;21.40;93.00
19206;DHT22;59358;52.134;5.596;2023-07-02T11:59:08;22.10;92.00
19206;DHT22;59358;52.134;5.596;2023-07-02T12:01:35;22.20;91.40
19206;DHT22;59358;52.134;5.596;2023-07-02T12:04:02;22.50;91.20
19206;DHT22;59358;52.134;5.596;2023-07-02T12:06:30;21.90;90.00
19206;DHT22;59358;52.134;5.596;2023-07-02T12:08:59;21.80;90.40
19206;DHT22;59358;52.134;5.596;2023-07-02T12:11:26;22.00;90.90
19206;DHT22;59358;52.134;5.596;2023-07-02T12:13:53;22.00;90.60
19206;DHT22;59358;52.134;5.596;2023-07-02T12:16:19;22.00;91.30
19206;DHT22;59358;52.134;5.596;2023-07-02T12:18:46;22.00;89.80
19206;DHT22;59358;52.134;5.596;2023-07-02T12:21:13;21.60;90.70
19206;DHT22;59358;52.134;5.596;2023-07-02T12:23:41;21.50;90.50
19206;DHT22;59358;52.134;5.596;2023-07-02T12:26:09;21.20;91.50
19206;DHT22;59358;52.134;5.596;2023-07-02T12:28:36;21.20;90.60
19206;DHT22;59358;52.134;5.596;2023-07-02T12:31:03;21.10;91.70
19206;DHT22;59358;52.134;5.596;2023-07-02T12:33:29;21.40;90.70
19206;DHT22;59358;52.134;5.596;2023-07-02T12:35:56;21.30;90.20
19206;DHT22;59358;52.134;5.596;2023-07-02T12:38:24;21.00;91.30
19206;DHT22;59358;52.134;5.596;2023-07-02T12:40:51;21.00;91.60
19206;DHT22;59358;52.134;5.596;2023-07-02T12:43:20;21.50;91.60
19206;DHT22;59358;52.134;5.596;2023-07-02T12:45:47;21.40;90.30
19206;DHT22;59358;52.134;5.596;2023-07-02T12:48:14;21.10;90.70
19206;DHT22;59358;52.134;5.596;2023-07-02T12:50:41;21.20;90.70
19206;DHT22;59358;52.134;5.596;2023-07-02T12:53:07;21.10;91.40
19206;DHT22;59358;52.134;5.596;2023-07-02T12:55:35;21.30;91.00
19206;DHT22;59358;52.134;5.596;2023-07-02T12:58:01;21.80;91.20
19206;DHT22;59358;52.134;5.596;2023-07-02T13:00:30;21.70;90.70
19206;DHT22;59358;52.134;5.596;2023-07-02T13:02:56;21.80;91.10
19206;DHT22;59358;52.134;5.596;2023-07-02T13:05:23;22.20;90.30
19206;DHT22;59358;52.134;5.596;2023-07-02T13:07:50;22.70;89.00
19206;DHT22;59358;52.134;5.596;2023-07-02T13:10:17;22.90;88.30
19206;DHT22;59358;52.134;5.596;2023-07-02T13:12:44;23.00;87.50
19206;DHT22;59358;52.134;5.596;2023-07-02T13:15:11;22.80;88.90
19206;DHT22;59358;52.134;5.596;2023-07-02T13:17:39;22.80;88.40
19206;DHT22;59358;52.134;5.596;2023-07-02T13:20:09;22.90;87.90
19206;DHT22;59358;52.134;5.596;2023-07-02T13:22:36;23.10;87.80
19206;DHT22;59358;52.134;5.596;2023-07-02T13:25:04;22.90;87.10
19206;DHT22;59358;52.134;5.596;2023-07-02T13:27:31;22.60;87.60
19206;DHT22;59358;52.134;5.596;2023-07-02T13:29:58;22.40;87.00
19206;DHT22;59358;52.134;5.596;2023-07-02T13:32:26;22.20;88.40
19206;DHT22;59358;52.134;5.596;2023-07-02T13:34:54;22.00;90.00
19206;DHT22;59358;52.134;5.596;2023-07-02T13:37:21;22.40;88.40
19206;DHT22;59358;52.134;5.596;2023-07-02T13:39:49;23.00;87.60
19206;DHT22;59358;52.134;5.596;2023-07-02T13:42:16;23.80;85.50
19206;DHT22;59358;52.134;5.596;2023-07-02T13:44:43;24.00;84.90
19206;DHT22;59358;52.134;5.596;2023-07-02T13:47:10;23.90;85.40
19206;DHT22;59358;52.134;5.596;2023-07-02T13:49:37;23.90;83.80
19206;DHT22;59358;52.134;5.596;2023-07-02T13:52:06;23.60;84.50
19206;DHT22;59358;52.134;5.596;2023-07-02T13:54:33;23.60;85.00
19206;DHT22;59358;52.134;5.596;2023-07-02T13:57:00;23.90;84.20
19206;DHT22;59358;52.134;5.596;2023-07-02T13:59:28;23.90;83.50
19206;DHT22;59358;52.134;5.596;2023-07-02T14:01:55;23.50;85.80
19206;DHT22;59358;52.134;5.596;2023-07-02T14:04:22;24.00;86.80
19206;DHT22;59358;52.134;5.596;2023-07-02T14:06:49;23.80;83.80
19206;DHT22;59358;52.134;5.596;2023-07-02T14:09:16;23.90;87.10
19206;DHT22;59358;52.134;5.596;2023-07-02T14:11:43;24.30;82.50
19206;DHT22;59358;52.134;5.596;2023-07-02T14:14:10;24.30;83.40
19206;DHT22;59358;52.134;5.596;2023-07-02T14:16:38;24.00;83.40
19206;DHT22;59358;52.134;5.596;2023-07-02T14:19:06;23.70;85.80
19206;DHT22;59358;52.134;5.596;2023-07-02T14:21:33;23.80;86.70
19206;DHT22;59358;52.134;5.596;2023-07-02T14:24:00;23.70;84.80
19206;DHT22;59358;52.134;5.596;2023-07-02T14:26:27;23.50;84.60
19206;DHT22;59358;52.134;5.596;2023-07-02T14:28:55;23.00;86.10
19206;DHT22;59358;52.134;5.596;2023-07-02T14:31:21;23.10;85.30
19206;DHT22;59358;52.134;5.596;2023-07-02T14:33:50;23.30;85.00
19206;DHT22;59358;52.134;5.596;2023-07-02T14:36:17;23.50;86.00
19206;DHT22;59358;52.134;5.596;2023-07-02T14:38:44;23.00;85.30
19206;DHT22;59358;52.134;5.596;2023-07-02T14:41:11;22.90;87.10
19206;DHT22;59358;52.134;5.596;2023-07-02T14:43:38;22.20;87.60
19206;DHT22;59358;52.134;5.596;2023-07-02T14:46:05;22.20;90.00
19206;DHT22;59358;52.134;5.596;2023-07-02T14:48:31;22.80;88.20
19206;DHT22;59358;52.134;5.596;2023-07-02T14:51:01;23.00;88.10
19206;DHT22;59358;52.134;5.596;2023-07-02T14:53:30;23.30;86.40
19206;DHT22;59358;52.134;5.596;2023-07-02T14:56:00;23.10;86.20
19206;DHT22;59358;52.134;5.596;2023-07-02T14:58:29;23.00;86.20
19206;DHT22;59358;52.134;5.596;2023-07-02T15:00:57;23.70;84.90
19206;DHT22;59358;52.134;5.596;2023-07-02T15:03:26;24.00;83.10
19206;DHT22;59358;52.134;5.596;2023-07-02T15:05:53;24.00;81.70
19206;DHT22;59358;52.134;5.596;2023-07-02T15:08:22;23.60;84.80
19206;DHT22;59358;52.134;5.596;2023-07-02T15:10:51;23.50;85.90
19206;DHT22;59358;52.134;5.596;2023-07-02T15:13:19;24.20;82.50
19206;DHT22;59358;52.134;5.596;2023-07-02T15:15:49;23.60;83.40
19206;DHT22;59358;52.134;5.596;2023-07-02T15:18:15;23.70;85.60
19206;DHT22;59358;52.134;5.596;2023-07-02T15:20:43;24.70;83.00
19206;DHT22;59358;52.134;5.596;2023-07-02T15:23:10;25.90;78.40
19206;DHT22;59358;52.134;5.596;2023-07-02T15:25:39;26.00;77.70
19206;DHT22;59358;52.134;5.596;2023-07-02T15:28:06;27.00;77.60
19206;DHT22;59358;52.134;5.596;2023-07-02T15:30:36;26.70;75.40
19206;DHT22;59358;52.134;5.596;2023-07-02T15:33:03;25.60;76.50